• Join FlightAware (Why Join?)
  • Login
  • US Flag 
06:30AM EDT


 

Airport Tracker/Info


-or-


 

Live Flight TrackerFlight Track Log ✈ N81ER ✈ 26-Apr-2013 ✈ KHUF - KPTK

Flight Track Log - Related Links

Times and Time Zones

All times are in EDT time to prevent confusion due to time zone crossing. See the N81ER flight status page for this flight to view local times or setup timezone preferences in your user account.

Time Position Orientation Groundspeed Altitude Reporting Facility
EDT Latitude Longitude Course Direction KTS MPH feet Rate Location/Type
06:00PM 39.4203 -87.3667 48° Northeast 204 235 4,600  Level Indianapolis Center
06:01PM 39.4825 -87.3744 354° North 261 300 9,100 3,840 Climbing Indianapolis Center
06:02PM 39.5358 -87.3050 45° Northeast 273 314 12,600 3,000 Climbing Indianapolis Center
06:03PM 39.5950 -87.2208 48° Northeast 305 351 15,400 2,580 Climbing Indianapolis Center
06:04PM 39.6706 -87.1128 48° Northeast 337 388 18,000 2,160 Climbing Indianapolis Center
06:05PM 39.7406 -87.0128 48° Northeast 362 417 19,900 1,980 Climbing Indianapolis Center
06:06PM 39.7751 -86.8500 48° Northeast  Level FlightAware Approximate
06:06PM 39.8108 -86.9136 47° Northeast 368 423 22,100  Level Indianapolis Center
06:07PM 39.8831 -86.8108 48° Northeast 376 433 23,900 1,800 Climbing Indianapolis Center
06:08PM 39.9567 -86.7025 48° Northeast 389 448 25,900 1,500 Climbing Indianapolis Center
06:09PM 40.0325 -86.5925 48° Northeast 398 458 27,000 480 Climbing Indianapolis Center
06:10PM 40.1158 -86.4728 48° Northeast 432 497 27,000  Level Indianapolis Center
06:11PM 40.1972 -86.3547 48° Northeast 432 497 27,000  Level Chicago Center
06:12PM 40.2925 -86.2156 48° Northeast 434 499 27,000  Level Chicago Center
06:14PM 40.3719 -86.0964 49° Northeast 431 496 27,000  Level Chicago Center
06:15PM 40.4533 -85.9778 48° Northeast 432 497 27,000  Level Chicago Center
06:16PM 40.5342 -85.8583 48° Northeast 434 499 27,000 -360 Level Chicago Center
06:17PM 40.6147 -85.7458 47° Northeast 424 488 26,300 -840 Descending Chicago Center
06:18PM 40.6989 -85.6622 37° Northeast 408 470 25,300 -1,140 Descending Chicago Center
06:19PM 40.8050 -85.5539 38° Northeast 403 464 24,000 -660 Descending Chicago Center
06:20PM 40.8936 -85.4642 37° Northeast 403 464 24,000 -480 Level Chicago Center
06:21PM 40.9828 -85.3767 37° Northeast 401 461 23,100 -960 Descending Chicago Center
06:22PM 41.0675 -85.2917 37° Northeast 391 450 22,100 -1,020 Descending Chicago Center
06:23PM 41.1531 -85.2081 36° Northeast 385 443 21,000 -540 Descending Chicago Center
06:24PM 41.2522 -85.1058 38° Northeast 380 437 21,000  Level Chicago Center
06:25PM 41.3450 -85.0467 26° Northeast 381 438 21,000  Level Chicago Center
06:26PM 41.4397 -85.0081 17° North 363 418 21,000  Level Chicago Center
06:27PM 41.5372 -84.9717 16° North 367 422 21,000 -240 Level Chicago Center
06:28PM 41.6531 -84.9078 22° Northeast 364 419 20,500 -1,140 Descending Cleveland Center
06:29PM 41.7056 -84.7889 59° Northeast 346 398 18,700 -1,800 Descending Cleveland Center
06:30PM 41.7556 -84.6725 60° Northeast 351 404 17,000 -1,680 Descending Cleveland Center
06:31PM 41.8014 -84.5583 62° Northeast 351 404 15,400 -1,560 Descending Cleveland Center
06:32PM 41.8511 -84.4444 60° Northeast 346 398 13,900 -1,500 Descending Cleveland Center
06:33PM 41.8944 -84.3325 62° Northeast 339 390 12,400 -1,500 Descending Cleveland Center
06:34PM 41.9239 -84.2644 60° Northeast 335 386 11,500 -1,200 Descending Cleveland Center
06:34PM 41.9311 -84.2314 74° East 334 384 11,200 -1,080 Descending Cleveland Center
06:35PM 41.9739 -84.1278 61° Northeast 327 376 10,100 -1,140 Descending Cleveland Center
06:36PM 42.0428 -84.0589 37° Northeast 307 353 9,000 -1,200 Descending Cleveland Center
06:37PM 42.1094 -83.9897 38° Northeast 296 341 7,800 -1,200 Descending Cleveland Center
06:38PM 42.1658 -83.9142 45° Northeast 296 341 6,600 -1,200 Descending Cleveland Center
06:39PM 42.2244 -83.8389 44° Northeast 291 335 5,400 -1,200 Descending Cleveland Center
06:40PM 42.3017 -83.7556 39° Northeast 279 321 4,000 -660 Descending Cleveland Center
06:41PM 42.3619 -83.6856 41° Northeast 282 325 4,000  Level Cleveland Center
06:42PM 42.4222 -83.6156 41° Northeast 283 326 4,000  Level Cleveland Center
06:43PM 42.4825 -83.5450 41° Northeast 286 329 4,000 -480 Level Cleveland Center
06:44PM 42.5447 -83.4775 39° Northeast 273 314 3,100 -720 Descending Cleveland Center
06:45PM 42.6025 -83.4181 37° Northeast 246 283 2,600 -600 Descending Cleveland Center
06:46PM 42.6472 -83.3722 37° Northeast 198 228 2,000 -540 Descending Cleveland Center
06:47PM 42.6658 -83.3786 346° North 109 125 1,600 -420 Descending Cleveland Center
06:49PM 42.6500 -83.4167 270° West  Level FlightAware Approximate